Time;durP1;ratioP1;P1;durP2;ratioP2;P2;SDS_P1;SDS_P2;PMS_P1;PMS_P2;Temp;Humidity;BMP_temperature;BMP_pressure;BME280_temperature;BME280_humidity;BME280_pressure;Samples;Min_cycle;Max_cycle;Signal;HPM_P1;HPM_P2
2022/08/26 00:00:47;;;;;;;8.90;5.70;;;18.00;99.90;;;;;;8354283;28;20249;-69
2022/08/26 00:04:48;;;;;;;8.00;6.00;;;18.00;99.90;;;;;;8385312;28;20225;-71
2022/08/26 00:08:49;;;;;;;6.47;5.60;;;18.00;99.90;;;;;;8355232;28;20189;-70
2022/08/26 00:12:50;;;;;;;5.80;5.13;;;17.90;99.90;;;;;;8349820;28;20521;-70
2022/08/26 00:16:51;;;;;;;8.63;5.57;;;17.80;99.90;;;;;;8352438;28;20231;-70
2022/08/26 00:20:52;;;;;;;7.43;5.50;;;17.80;99.90;;;;;;8352373;28;20532;-70
2022/08/26 00:24:53;;;;;;;5.93;5.33;;;17.80;99.90;;;;;;8351965;28;20205;-70
2022/08/26 00:28:54;;;;;;;6.47;5.37;;;17.70;99.90;;;;;;8367997;28;20201;-70
2022/08/26 00:32:55;;;;;;;5.73;5.23;;;17.70;99.90;;;;;;8351576;28;20180;-69
2022/08/26 00:36:56;;;;;;;5.53;4.17;;;17.70;99.90;;;;;;8354516;28;20539;-70
2022/08/26 00:40:57;;;;;;;7.03;4.23;;;17.60;99.90;;;;;;8357337;28;20187;-70
2022/08/26 00:44:58;;;;;;;5.67;4.87;;;17.60;99.90;;;;;;8361448;28;20197;-70
2022/08/26 00:49:14;;;;;;;6.17;5.23;;;17.50;99.90;;;;;;8360903;28;20181;-70
2022/08/26 00:53:20;;;;;;;5.90;5.40;;;17.50;99.90;;;;;;8374052;28;20188;-70
2022/08/26 00:57:22;;;;;;;8.50;5.40;;;17.50;99.90;;;;;;8374476;28;20182;-70
2022/08/26 01:01:25;;;;;;;5.97;5.37;;;17.50;99.90;;;;;;8390820;28;20240;-70
2022/08/26 01:05:26;;;;;;;6.97;5.00;;;17.50;99.90;;;;;;8354979;28;20278;-70
2022/08/26 01:09:27;;;;;;;9.07;6.27;;;17.40;99.90;;;;;;8358223;28;20182;-69
2022/08/26 01:13:29;;;;;;;7.27;6.00;;;17.40;99.90;;;;;;8361375;28;20198;-70
2022/08/26 01:17:29;;;;;;;7.57;6.63;;;17.40;99.90;;;;;;8362632;28;20236;-70
2022/08/26 01:21:38;;;;;;;10.10;7.37;;;17.40;99.90;;;;;;8359085;28;20191;-70
2022/08/26 01:25:42;;;;;;;8.43;7.07;;;17.40;99.90;;;;;;8352003;28;20379;-70
2022/08/26 01:29:45;;;;;;;10.37;7.60;;;17.40;99.90;;;;;;8355763;28;20282;-70
2022/08/26 01:34:07;;;;;;;8.60;7.67;;;17.30;99.90;;;;;;8353247;28;20193;-70
2022/08/26 01:38:09;;;;;;;11.70;7.83;;;17.30;99.90;;;;;;8385617;28;20185;-70
2022/08/26 01:42:13;;;;;;;10.07;8.23;;;17.20;99.90;;;;;;8346809;28;20209;-70
2022/08/26 01:46:15;;;;;;;13.50;8.33;;;17.20;99.90;;;;;;8347770;28;20225;-71
2022/08/26 01:50:23;;;;;;;9.07;7.73;;;17.10;99.90;;;;;;8348490;28;20285;-71
2022/08/26 01:54:24;;;;;;;9.80;7.13;;;17.10;99.90;;;;;;8349308;28;20228;-71
2022/08/26 01:58:37;;;;;;;7.47;6.23;;;17.00;99.90;;;;;;8350631;28;20323;-70
2022/08/26 02:02:48;;;;;;;7.33;6.63;;;17.00;99.90;;;;;;8359963;28;20178;-70
2022/08/26 02:06:49;;;;;;;6.97;6.37;;;17.00;99.90;;;;;;8371307;28;20210;-70
2022/08/26 02:10:50;;;;;;;7.47;6.33;;;17.00;99.90;;;;;;8355992;28;20189;-71
2022/08/26 02:14:55;;;;;;;6.13;5.63;;;16.90;99.90;;;;;;8352477;28;20183;-71
2022/08/26 02:18:57;;;;;;;6.70;6.10;;;16.90;99.90;;;;;;8369888;28;20200;-71
2022/08/26 02:22:58;;;;;;;6.50;5.93;;;16.90;99.90;;;;;;8352039;28;20193;-72
2022/08/26 02:26:59;;;;;;;7.97;6.57;;;16.80;99.90;;;;;;8353936;28;20213;-70
2022/08/26 02:31:01;;;;;;;8.17;7.37;;;16.80;99.90;;;;;;8353075;28;20189;-72
2022/08/26 02:35:01;;;;;;;8.00;7.27;;;16.80;99.90;;;;;;8357004;28;20181;-70
2022/08/26 02:39:03;;;;;;;8.97;8.07;;;16.80;99.90;;;;;;8357949;28;20272;-71
2022/08/26 02:43:04;;;;;;;8.90;7.37;;;16.80;99.90;;;;;;8355015;28;20194;-71
2022/08/26 02:47:06;;;;;;;7.97;7.03;;;16.70;99.90;;;;;;8353359;28;20218;-71
2022/08/26 02:51:07;;;;;;;7.97;7.10;;;16.70;99.90;;;;;;8362501;28;20256;-71
2022/08/26 02:55:08;;;;;;;7.93;7.03;;;16.60;99.90;;;;;;8359538;28;20576;-71
2022/08/26 02:59:11;;;;;;;9.83;7.20;;;16.60;99.90;;;;;;8355473;28;20201;-71
2022/08/26 03:03:12;;;;;;;9.83;7.77;;;16.60;99.90;;;;;;8354505;28;20186;-71
2022/08/26 03:07:13;;;;;;;10.80;8.60;;;16.60;99.90;;;;;;8357583;28;20210;-71
2022/08/26 03:11:14;;;;;;;12.13;8.37;;;16.50;99.90;;;;;;8371380;28;20352;-71
2022/08/26 03:15:17;;;;;;;11.23;8.00;;;16.50;99.90;;;;;;8349825;28;20189;-70
2022/08/26 03:19:17;;;;;;;10.57;8.77;;;16.50;99.90;;;;;;8354028;28;20210;-72
2022/08/26 03:23:18;;;;;;;12.93;9.43;;;16.50;99.90;;;;;;8385314;28;20193;-71
2022/08/26 03:27:19;;;;;;;21.47;11.40;;;16.50;99.90;;;;;;8358490;28;20263;-71
2022/08/26 03:31:20;;;;;;;17.33;12.13;;;16.50;99.90;;;;;;8354369;28;20196;-71
2022/08/26 03:35:21;;;;;;;17.47;11.40;;;16.50;99.90;;;;;;8351179;28;20201;-71
2022/08/26 03:39:21;;;;;;;13.90;10.37;;;16.50;99.90;;;;;;8353803;28;20284;-71
2022/08/26 03:43:25;;;;;;;18.77;11.03;;;16.50;99.90;;;;;;8351563;28;20193;-70
2022/08/26 03:47:26;;;;;;;17.03;11.13;;;16.50;99.90;;;;;;8352598;28;20255;-70
2022/08/26 03:51:27;;;;;;;15.73;10.27;;;16.50;99.90;;;;;;8348579;28;20205;-71
2022/08/26 03:55:31;;;;;;;13.90;9.73;;;16.40;99.90;;;;;;8353758;28;20265;-71
2022/08/26 03:59:32;;;;;;;13.13;9.90;;;16.40;99.90;;;;;;8350206;28;20197;-71
2022/08/26 04:07:52;;;;;;;12.97;9.77;;;16.40;99.90;;;;;;8352044;28;20212;-71
2022/08/26 04:11:54;;;;;;;10.60;9.23;;;16.40;99.90;;;;;;8348144;28;20229;-71
2022/08/26 04:15:56;;;;;;;10.80;8.17;;;16.40;99.90;;;;;;8348763;28;20193;-71
2022/08/26 04:19:57;;;;;;;9.47;8.33;;;16.30;99.90;;;;;;8300938;28;1329970;-71
2022/08/26 04:23:57;;;;;;;8.93;8.03;;;16.40;99.90;;;;;;8348698;28;20186;-71
2022/08/26 04:27:58;;;;;;;9.30;8.30;;;16.40;99.90;;;;;;8346279;28;20267;-71
2022/08/26 04:32:02;;;;;;;11.40;8.73;;;16.40;99.90;;;;;;8347214;28;20189;-71
2022/08/26 04:36:04;;;;;;;12.67;9.03;;;16.50;99.90;;;;;;8350252;28;20186;-70
2022/08/26 04:40:08;;;;;;;11.83;10.57;;;16.60;99.90;;;;;;8350165;28;20182;-70
2022/08/26 04:44:09;;;;;;;12.33;11.07;;;16.70;99.90;;;;;;8348598;28;20208;-71
2022/08/26 04:48:10;;;;;;;13.03;11.63;;;16.80;99.90;;;;;;8341249;28;20178;-71
2022/08/26 04:52:11;;;;;;;14.60;12.23;;;17.00;99.90;;;;;;8348961;28;20193;-71
2022/08/26 04:56:13;;;;;;;14.23;12.43;;;17.20;99.90;;;;;;8345858;28;20263;-71
2022/08/26 05:00:14;;;;;;;16.03;12.60;;;17.40;99.90;;;;;;8349716;28;20174;-71
2022/08/26 05:04:15;;;;;;;14.73;10.97;;;17.60;99.90;;;;;;8345658;28;20209;-71
2022/08/26 05:08:18;;;;;;;18.30;12.87;;;17.80;99.90;;;;;;8344867;28;20182;-71
2022/08/26 05:12:19;;;;;;;21.23;14.80;;;17.90;99.90;;;;;;8346227;28;20204;-71
2022/08/26 05:16:20;;;;;;;17.77;13.27;;;17.90;99.90;;;;;;8349182;28;20174;-70
2022/08/26 05:20:20;;;;;;;14.57;11.83;;;17.90;99.90;;;;;;8348374;28;20190;-71
2022/08/26 05:24:22;;;;;;;18.80;14.10;;;18.10;99.90;;;;;;8348383;28;20205;-71
2022/08/26 05:28:23;;;;;;;15.50;13.27;;;18.30;99.90;;;;;;8351565;28;20184;-71
2022/08/26 05:32:24;;;;;;;13.20;11.90;;;18.50;99.90;;;;;;8349075;28;20221;-71
2022/08/26 05:36:28;;;;;;;11.60;10.40;;;18.70;99.90;;;;;;8347529;28;20178;-70
2022/08/26 05:40:32;;;;;;;15.37;12.93;;;19.00;99.90;;;;;;8345720;28;20186;-71
2022/08/26 05:44:33;;;;;;;12.03;10.83;;;19.20;99.90;;;;;;8344988;28;20206;-71
2022/08/26 05:48:33;;;;;;;13.30;12.03;;;19.40;99.90;;;;;;8348449;28;20267;-71
2022/08/26 05:52:34;;;;;;;9.70;8.80;;;19.60;99.90;;;;;;8345552;28;20483;-71
2022/08/26 05:56:38;;;;;;;12.20;10.27;;;19.90;99.90;;;;;;8347011;28;20200;-70
2022/08/26 06:00:40;;;;;;;11.27;10.07;;;20.10;99.90;;;;;;8338220;28;20356;-71
2022/08/26 06:04:41;;;;;;;11.53;9.60;;;20.40;99.90;;;;;;8344711;28;20221;-71
2022/08/26 06:08:43;;;;;;;11.77;10.57;;;20.70;99.90;;;;;;8347914;28;20236;-70
2022/08/26 06:12:44;;;;;;;17.60;11.40;;;20.90;99.90;;;;;;8353525;28;20194;-71
2022/08/26 06:16:44;;;;;;;12.80;11.43;;;21.20;99.90;;;;;;8345938;28;20422;-70
2022/08/26 06:20:46;;;;;;;16.57;11.43;;;21.30;99.90;;;;;;8343586;28;20300;-70
2022/08/26 06:29:14;;;;;;;23.47;12.80;;;21.60;99.90;;;;;;8351294;28;20272;-70
2022/08/26 06:33:15;;;;;;;18.03;13.53;;;21.70;99.90;;;;;;8347854;28;20182;-71
2022/08/26 06:37:16;;;;;;;13.43;10.97;;;21.80;99.90;;;;;;8346293;28;20272;-70
2022/08/26 06:41:19;;;;;;;12.63;9.43;;;22.00;99.90;;;;;;8347854;28;20196;-70
2022/08/26 06:45:20;;;;;;;18.70;13.23;;;22.30;99.90;;;;;;8346631;28;20202;-70
2022/08/26 06:49:21;;;;;;;14.90;10.63;;;22.60;99.90;;;;;;8352443;28;20186;-70
2022/08/26 06:53:22;;;;;;;16.50;11.00;;;22.80;99.90;;;;;;8352111;28;20209;-70
2022/08/26 06:57:23;;;;;;;16.97;10.53;;;23.10;99.90;;;;;;8348293;28;20277;-70
2022/08/26 07:01:27;;;;;;;15.13;11.07;;;23.20;99.90;;;;;;8346894;28;20193;-70
2022/08/26 07:05:28;;;;;;;21.03;13.23;;;23.40;99.90;;;;;;8345895;28;20251;-69
2022/08/26 07:09:34;;;;;;;20.48;13.77;;;23.40;99.90;;;;;;8350972;28;20178;-70
2022/08/26 07:13:36;;;;;;;23.48;17.48;;;23.40;99.90;;;;;;8351871;28;20209;-70
2022/08/26 07:17:37;;;;;;;25.93;17.17;;;23.40;99.90;;;;;;8352270;28;20189;-70
2022/08/26 07:21:40;;;;;;;22.83;17.20;;;23.40;99.90;;;;;;8351579;28;20189;-70
2022/08/26 07:25:41;;;;;;;27.13;21.63;;;23.50;99.90;;;;;;8354528;28;20201;-70
2022/08/26 07:29:43;;;;;;;29.53;22.70;;;23.60;99.90;;;;;;8355110;28;20260;-70
2022/08/26 07:33:44;;;;;;;29.35;20.48;;;23.30;99.90;;;;;;8353205;28;20174;-71
2022/08/26 07:37:45;;;;;;;35.10;24.53;;;23.40;99.90;;;;;;8356484;28;20205;-70
2022/08/26 07:41:46;;;;;;;35.15;23.63;;;23.50;99.90;;;;;;8354005;28;20186;-70
2022/08/26 07:45:47;;;;;;;31.38;23.00;;;23.50;99.90;;;;;;8354317;28;20221;-70
2022/08/26 07:49:56;;;;;;;28.90;20.47;;;23.50;99.90;;;;;;8355338;28;20182;-70
2022/08/26 07:53:57;;;;;;;27.38;19.70;;;23.80;99.90;;;;;;8351047;28;20220;-70
2022/08/26 07:58:01;;;;;;;33.58;22.08;;;23.80;99.90;;;;;;8359307;28;20270;-70
2022/08/26 08:02:02;;;;;;;25.95;21.15;;;24.00;99.90;;;;;;8349653;28;20293;-70
2022/08/26 08:06:09;;;;;;;29.92;21.88;;;24.20;99.90;;;;;;8350838;28;20198;-70
2022/08/26 08:10:14;;;;;;;24.08;16.70;;;24.30;99.90;;;;;;8351295;28;20182;-70
2022/08/26 08:14:15;;;;;;;27.55;21.02;;;24.50;99.90;;;;;;8356202;28;20221;-70
2022/08/26 08:18:16;;;;;;;25.95;17.73;;;24.60;99.90;;;;;;8353121;28;20241;-70
2022/08/26 08:22:17;;;;;;;26.70;17.65;;;24.90;99.90;;;;;;8346667;28;20194;-70
2022/08/26 08:26:18;;;;;;;24.75;14.65;;;25.10;99.90;;;;;;8349600;28;20212;-69
2022/08/26 08:30:20;;;;;;;24.40;15.23;;;25.40;99.90;;;;;;8350410;28;20182;-70
2022/08/26 08:34:22;;;;;;;24.63;14.88;;;25.60;99.90;;;;;;8347563;28;20281;-70
2022/08/26 08:38:23;;;;;;;22.30;16.45;;;25.70;1.00;;;;;;8350961;28;20182;-70
2022/08/26 08:42:41;;;;;;;23.83;14.25;;;25.90;99.90;;;;;;8346747;28;20189;-70
2022/08/26 08:46:44;;;;;;;25.15;14.57;;;26.00;99.90;;;;;;8348918;28;20214;-71
2022/08/26 08:50:49;;;;;;;23.85;14.88;;;26.20;99.90;;;;;;8350117;28;20204;-70
2022/08/26 08:54:49;;;;;;;23.48;11.95;;;26.30;75.50;;;;;;8351805;28;20178;-70
2022/08/26 08:59:02;;;;;;;19.08;10.13;;;26.40;99.90;;;;;;8347305;28;20457;-70
2022/08/26 09:03:22;;;;;;;18.30;10.43;;;26.60;99.90;;;;;;8360518;28;20192;-70
2022/08/26 09:07:42;;;;;;;18.92;10.63;;;26.70;99.90;;;;;;8347919;28;20205;-71
2022/08/26 09:11:42;;;;;;;23.48;11.73;;;26.80;99.90;;;;;;8345852;28;20202;-70
2022/08/26 09:15:46;;;;;;;19.13;10.95;;;27.00;99.90;;;;;;8348744;28;20224;-70
2022/08/26 09:19:53;;;;;;;20.95;10.43;;;27.20;32.80;;;;;;8348821;28;20221;-70
2022/08/26 09:23:55;;;;;;;21.67;11.77;;;27.30;1.00;;;;;;8353808;28;20205;-69
2022/08/26 09:27:56;;;;;;;20.85;11.45;;;27.40;1.00;;;;;;8348800;28;20282;-70
2022/08/26 09:32:19;;;;;;;18.40;9.90;;;27.50;1.00;;;;;;8344464;28;20608;-68
2022/08/26 09:36:33;;;;;;;17.48;11.02;;;27.70;1.00;;;;;;8362028;28;20182;-70
2022/08/26 09:40:34;;;;;;;17.35;9.60;;;27.80;1.00;;;;;;8346512;28;20197;-70
2022/08/26 09:44:59;;;;;;;22.55;9.35;;;27.80;1.00;;;;;;8343920;28;20186;-69
2022/08/26 09:49:36;;;;;;;20.95;8.18;;;27.90;1.00;;;;;;8351618;28;20328;-70
2022/08/26 09:53:58;;;;;;;18.85;6.40;;;28.10;99.90;;;;;;8343355;28;20267;-71
2022/08/26 09:57:58;;;;;;;14.93;7.20;;;28.30;99.90;;;;;;8344976;28;20192;-69
2022/08/26 10:02:34;;;;;;;17.27;6.00;;;28.60;99.90;;;;;;8346162;28;20200;-69
2022/08/26 10:06:41;;;;;;;17.63;6.95;;;28.70;99.90;;;;;;8343616;28;20206;-70
2022/08/26 10:10:44;;;;;;;18.70;6.35;;;28.90;99.90;;;;;;8344957;28;20247;-70
2022/08/26 10:14:56;;;;;;;16.17;6.10;;;29.10;99.90;;;;;;8345898;28;20231;-70
2022/08/26 10:19:12;;;;;;;15.45;6.97;;;29.20;99.90;;;;;;8365367;28;20543;-70
2022/08/26 10:23:19;;;;;;;16.25;6.65;;;29.30;99.90;;;;;;8339566;28;20193;-68
2022/08/26 10:27:34;;;;;;;14.23;7.28;;;29.50;99.90;;;;;;8343479;28;20229;-68
2022/08/26 10:31:45;;;;;;;15.27;7.45;;;29.60;99.90;;;;;;8357395;28;20205;-70
2022/08/26 10:40:47;;;;;;;13.57;7.50;;;29.50;99.90;;;;;;8342961;28;20239;-70
2022/08/26 10:44:54;;;;;;;16.63;6.68;;;29.50;99.90;;;;;;8349273;28;20251;-68
2022/08/26 10:49:05;;;;;;;14.98;7.95;;;29.60;99.90;;;;;;8382374;28;20506;-68
2022/08/26 10:53:54;;;;;;;15.60;7.10;;;29.70;99.90;;;;;;8359777;28;20583;-69
2022/08/26 10:58:02;;;;;;;12.63;6.68;;;29.70;99.90;;;;;;8340951;28;20194;-69
2022/08/26 11:02:20;;;;;;;11.20;6.53;;;29.70;99.90;;;;;;8346261;28;20247;-69
2022/08/26 11:06:25;;;;;;;15.07;5.53;;;29.90;99.90;;;;;;8353405;28;20197;-69
2022/08/26 11:10:41;;;;;;;13.00;5.47;;;30.10;99.90;;;;;;8349436;28;20296;-67
2022/08/26 11:14:42;;;;;;;18.77;5.90;;;30.30;99.90;;;;;;8366621;28;20202;-67
2022/08/26 11:18:44;;;;;;;15.65;5.80;;;30.40;82.50;;;;;;8348774;28;20201;-67
2022/08/26 11:22:45;;;;;;;11.20;4.88;;;30.30;95.20;;;;;;8349501;28;20262;-67
2022/08/26 11:26:46;;;;;;;11.18;5.13;;;30.30;32.00;;;;;;8346914;28;20217;-67
2022/08/26 11:30:49;;;;;;;14.88;4.82;;;30.30;33.80;;;;;;8348436;28;20182;-66
2022/08/26 11:34:56;;;;;;;10.85;4.97;;;30.30;41.30;;;;;;8347822;28;20292;-67
2022/08/26 11:38:58;;;;;;;9.85;4.72;;;30.30;15.30;;;;;;8349910;28;20193;-68
2022/08/26 11:43:00;;;;;;;8.07;3.13;;;30.40;12.30;;;;;;8347626;28;20182;-68
2022/08/26 11:47:01;;;;;;;11.40;3.80;;;30.50;1.00;;;;;;8349118;28;20201;-68
2022/08/26 11:51:07;;;;;;;6.40;2.80;;;30.40;1.00;;;;;;8349371;28;20251;-67
2022/08/26 11:55:13;;;;;;;6.57;2.70;;;30.30;1.00;;;;;;8349499;28;20240;-66
2022/08/26 11:59:22;;;;;;;5.88;2.72;;;30.30;1.00;;;;;;8351910;28;20182;-67
2022/08/26 12:03:34;;;;;;;9.02;3.15;;;30.30;1.00;;;;;;8364648;28;20586;-66
2022/08/26 12:07:35;;;;;;;5.93;2.97;;;30.50;1.00;;;;;;8371188;28;20216;-67
2022/08/26 12:11:38;;;;;;;8.65;2.95;;;30.50;1.00;;;;;;8349047;28;20202;-68
2022/08/26 12:15:39;;;;;;;10.27;3.28;;;30.50;1.00;;;;;;8350087;28;20232;-66
2022/08/26 12:19:39;;;;;;;7.32;3.25;;;30.50;1.00;;;;;;8345598;28;20197;-67
2022/08/26 12:23:46;;;;;;;6.30;3.13;;;30.50;1.00;;;;;;8365296;28;20181;-67
2022/08/26 12:27:47;;;;;;;4.38;2.95;;;30.40;1.00;;;;;;8357070;28;20205;-69
2022/08/26 12:31:48;;;;;;;7.95;2.53;;;30.60;1.00;;;;;;8366104;28;20227;-67
2022/08/26 12:35:50;;;;;;;5.38;3.00;;;30.50;1.00;;;;;;8347128;28;20174;-66
2022/08/26 12:39:51;;;;;;;8.23;3.28;;;30.50;1.00;;;;;;8350215;28;20632;-67
2022/08/26 12:43:52;;;;;;;9.25;3.35;;;30.40;1.00;;;;;;8350435;28;20200;-67
2022/08/26 12:47:57;;;;;;;8.55;3.10;;;30.30;1.00;;;;;;8348113;28;20206;-67
2022/08/26 12:51:58;;;;;;;5.10;3.05;;;30.40;1.00;;;;;;8348839;28;20193;-67
2022/08/26 12:56:03;;;;;;;8.18;3.25;;;30.40;1.00;;;;;;8339520;28;20189;-67
2022/08/26 13:00:34;;;;;;;8.00;3.00;;;30.40;1.00;;;;;;8354032;28;20182;-67
2022/08/26 13:04:42;;;;;;;8.50;2.85;;;30.50;1.00;;;;;;8346209;28;20293;-67
2022/08/26 13:09:04;;;;;;;10.02;3.13;;;30.50;1.00;;;;;;8346318;28;20268;-67
2022/08/26 13:13:05;;;;;;;7.97;3.13;;;30.40;1.00;;;;;;8362088;28;20263;-67
2022/08/26 13:17:05;;;;;;;8.52;3.65;;;30.40;1.00;;;;;;8348538;28;20197;-67
2022/08/26 13:21:17;;;;;;;9.27;3.28;;;30.30;1.00;;;;;;8348460;28;20185;-67
2022/08/26 13:25:18;;;;;;;8.30;3.15;;;30.30;1.00;;;;;;8347367;28;20290;-69
2022/08/26 13:29:19;;;;;;;14.38;3.72;;;30.50;1.00;;;;;;8345196;28;20178;-67
2022/08/26 13:33:21;;;;;;;12.30;4.00;;;30.50;1.00;;;;;;8343532;28;20268;-67
2022/08/26 13:37:22;;;;;;;8.32;3.70;;;30.50;1.00;;;;;;8343333;28;20643;-67
2022/08/26 13:41:23;;;;;;;14.65;4.03;;;30.60;1.00;;;;;;8344136;28;20193;-66
2022/08/26 13:45:24;;;;;;;11.10;3.42;;;30.60;1.00;;;;;;8347127;28;20578;-67
2022/08/26 13:49:24;;;;;;;6.22;3.20;;;30.50;1.00;;;;;;8346522;28;20189;-66
2022/08/26 13:53:25;;;;;;;12.10;3.28;;;30.50;1.00;;;;;;8339922;28;20182;-67
2022/08/26 13:57:28;;;;;;;12.68;2.80;;;30.50;1.00;;;;;;8345364;28;20186;-67
2022/08/26 14:01:30;;;;;;;12.68;3.40;;;30.40;1.00;;;;;;8341759;28;20264;-66
2022/08/26 14:05:32;;;;;;;13.35;3.13;;;30.30;1.00;;;;;;8344125;28;20228;-66
2022/08/26 14:09:33;;;;;;;7.45;3.15;;;30.30;1.00;;;;;;8349957;28;20209;-66
2022/08/26 14:13:34;;;;;;;6.03;2.90;;;30.20;1.00;;;;;;8340745;28;20177;-67
2022/08/26 14:17:35;;;;;;;10.35;3.47;;;30.30;1.00;;;;;;8344494;28;20197;-65
2022/08/26 14:21:38;;;;;;;9.55;3.30;;;30.20;1.00;;;;;;8352361;28;20178;-67
2022/08/26 14:25:39;;;;;;;11.00;3.10;;;30.20;1.00;;;;;;8350459;28;20201;-67
2022/08/26 14:29:40;;;;;;;12.02;3.78;;;30.20;1.00;;;;;;8351758;28;20178;-66
2022/08/26 14:33:41;;;;;;;8.30;2.83;;;30.30;1.00;;;;;;8352415;28;20179;-67
2022/08/26 14:37:42;;;;;;;9.20;2.90;;;30.40;1.00;;;;;;8348673;28;20185;-67
2022/08/26 14:41:51;;;;;;;8.27;3.50;;;30.40;1.00;;;;;;8352273;28;20197;-66
2022/08/26 14:45:52;;;;;;;9.85;3.33;;;30.30;1.00;;;;;;8382344;28;20198;-67
2022/08/26 14:49:53;;;;;;;11.10;3.22;;;30.30;1.00;;;;;;8352447;28;20181;-67
2022/08/26 14:54:11;;;;;;;9.52;3.22;;;30.30;1.00;;;;;;8344808;28;20174;-67
2022/08/26 14:58:12;;;;;;;10.20;3.08;;;30.30;1.00;;;;;;8352019;28;20196;-67
2022/08/26 15:02:13;;;;;;;12.18;3.15;;;30.30;1.00;;;;;;8351101;28;20217;-67
2022/08/26 15:06:15;;;;;;;10.00;2.83;;;30.10;1.00;;;;;;8348700;28;20194;-67
2022/08/26 15:10:17;;;;;;;9.77;3.15;;;30.10;1.00;;;;;;8352214;28;20208;-62
2022/08/26 15:14:19;;;;;;;11.27;3.60;;;30.10;1.00;;;;;;8352374;28;21663;-66
2022/08/26 15:18:21;;;;;;;11.70;3.33;;;30.00;1.00;;;;;;8349518;28;20252;-65
2022/08/26 15:22:22;;;;;;;8.93;3.00;;;30.00;1.00;;;;;;8349098;28;20180;-63
2022/08/26 15:26:23;;;;;;;9.57;3.30;;;29.90;1.00;;;;;;8360321;28;20454;-66
2022/08/26 15:30:24;;;;;;;11.98;3.15;;;29.90;1.00;;;;;;8352859;28;20182;-62
2022/08/26 15:34:25;;;;;;;7.25;3.30;;;29.80;1.00;;;;;;8349778;28;20182;-62
2022/08/26 15:38:37;;;;;;;8.52;3.38;;;29.80;1.00;;;;;;8363116;28;20178;-67
2022/08/26 15:42:38;;;;;;;8.18;3.30;;;29.80;1.00;;;;;;8350310;28;20186;-64
2022/08/26 15:46:40;;;;;;;6.85;3.42;;;29.80;1.00;;;;;;8366975;28;20217;-64
2022/08/26 15:51:00;;;;;;;6.97;3.40;;;29.70;1.00;;;;;;8348718;28;20178;-65
2022/08/26 15:55:01;;;;;;;8.18;3.88;;;29.70;1.00;;;;;;8350866;28;20185;-66
2022/08/26 15:59:04;;;;;;;14.27;4.07;;;29.60;1.00;;;;;;8351854;28;20190;-65
2022/08/26 16:03:06;;;;;;;10.70;3.30;;;29.60;1.00;;;;;;8349039;28;20189;-64
2022/08/26 16:07:07;;;;;;;9.38;3.92;;;29.50;1.00;;;;;;8350854;28;20210;-65
2022/08/26 16:11:08;;;;;;;6.18;3.20;;;29.50;1.00;;;;;;8345446;28;20202;-65
2022/08/26 16:15:09;;;;;;;8.05;3.35;;;29.40;1.00;;;;;;8350351;28;20249;-64
2022/08/26 16:19:10;;;;;;;9.82;3.75;;;29.20;1.00;;;;;;8364424;28;20233;-65
2022/08/26 16:23:11;;;;;;;8.48;3.80;;;29.00;1.00;;;;;;8347427;28;20182;-64
2022/08/26 16:27:11;;;;;;;8.18;3.83;;;28.90;1.00;;;;;;8350731;28;20297;-72
2022/08/26 16:31:13;;;;;;;6.65;3.70;;;28.70;1.00;;;;;;8350222;28;20186;-65
2022/08/26 16:35:15;;;;;;;6.38;3.47;;;28.60;1.00;;;;;;8350971;28;20224;-66
2022/08/26 16:39:16;;;;;;;4.97;3.33;;;28.40;1.00;;;;;;8346759;28;20188;-64
2022/08/26 16:43:17;;;;;;;7.18;3.53;;;28.20;1.00;;;;;;8348761;28;20181;-65
2022/08/26 16:47:18;;;;;;;4.05;3.08;;;27.90;1.00;;;;;;8351179;28;20214;-65
2022/08/26 16:51:21;;;;;;;4.47;3.50;;;27.70;1.00;;;;;;8350940;28;20178;-66
2022/08/26 16:55:22;;;;;;;7.57;3.60;;;27.40;18.90;;;;;;8338535;28;20178;-64
2022/08/26 16:59:23;;;;;;;6.60;3.92;;;27.10;42.00;;;;;;8362586;28;20210;-66
2022/08/26 17:03:24;;;;;;;5.47;3.63;;;26.80;82.00;;;;;;8347359;28;20190;-66
2022/08/26 17:07:25;;;;;;;6.53;4.45;;;26.50;99.90;;;;;;8350250;28;20278;-66
2022/08/26 17:11:26;;;;;;;6.00;3.92;;;26.20;99.90;;;;;;8346100;28;20207;-64
2022/08/26 17:15:27;;;;;;;7.55;3.95;;;25.90;99.90;;;;;;8349807;28;20212;-65
2022/08/26 17:19:27;;;;;;;5.13;3.40;;;25.70;99.90;;;;;;8352105;28;20225;-65
2022/08/26 17:23:29;;;;;;;5.68;3.63;;;25.40;99.90;;;;;;8347234;28;20264;-64
2022/08/26 17:27:30;;;;;;;4.00;3.50;;;25.00;99.90;;;;;;8350497;28;20209;-65
2022/08/26 17:31:31;;;;;;;4.20;3.60;;;24.80;99.90;;;;;;8348725;28;20185;-64
2022/08/26 17:35:32;;;;;;;5.30;3.95;;;24.60;1.00;;;;;;8349128;28;20177;-65
2022/08/26 17:39:35;;;;;;;4.90;3.77;;;24.30;1.00;;;;;;8350488;28;20224;-64
2022/08/26 17:43:37;;;;;;;6.03;3.40;;;24.20;1.00;;;;;;8346654;28;20186;-65
2022/08/26 17:47:38;;;;;;;4.27;3.70;;;23.90;1.00;;;;;;8346091;28;20237;-65
2022/08/26 17:51:39;;;;;;;5.27;4.60;;;23.70;38.10;;;;;;8347894;28;20178;-65
2022/08/26 17:55:40;;;;;;;7.00;4.93;;;23.50;99.90;;;;;;8352740;28;20193;-68
2022/08/26 17:59:41;;;;;;;5.47;4.43;;;23.30;99.90;;;;;;8347885;28;20213;-65
2022/08/26 18:03:42;;;;;;;5.47;4.23;;;23.00;99.90;;;;;;8345408;28;20178;-64
2022/08/26 18:07:43;;;;;;;4.90;4.37;;;22.80;1.00;;;;;;8349403;28;20202;-67
2022/08/26 18:11:44;;;;;;;5.13;4.63;;;22.60;1.00;;;;;;8345805;28;20202;-67
2022/08/26 18:15:46;;;;;;;5.73;4.40;;;22.40;1.00;;;;;;8346930;28;20181;-68
2022/08/26 18:19:47;;;;;;;5.87;4.80;;;22.30;1.00;;;;;;8347335;28;20229;-67
2022/08/26 18:23:49;;;;;;;6.07;5.03;;;22.20;31.30;;;;;;8362991;28;20194;-66
2022/08/26 18:27:50;;;;;;;7.30;4.60;;;22.10;98.70;;;;;;8347261;28;20198;-66
2022/08/26 18:31:51;;;;;;;8.33;5.13;;;22.00;99.90;;;;;;8348665;28;20177;-64
2022/08/26 18:35:52;;;;;;;6.00;5.10;;;21.90;99.90;;;;;;8348819;28;20193;-63
2022/08/26 18:39:53;;;;;;;9.63;5.40;;;21.70;1.00;;;;;;8349106;28;20190;-65
2022/08/26 18:43:54;;;;;;;6.43;5.30;;;21.60;1.00;;;;;;8347595;28;20194;-65
2022/08/26 18:47:56;;;;;;;5.80;5.00;;;21.60;1.00;;;;;;8353694;28;20221;-64
2022/08/26 18:51:57;;;;;;;7.97;5.80;;;21.50;1.00;;;;;;8341390;28;20212;-64
2022/08/26 18:55:58;;;;;;;6.77;5.23;;;21.50;1.00;;;;;;8347644;28;20190;-65
2022/08/26 18:59:58;;;;;;;5.30;4.80;;;21.30;1.00;;;;;;8345017;28;20370;-63
2022/08/26 19:04:02;;;;;;;5.30;4.80;;;21.10;99.90;;;;;;8345988;28;20190;-65
2022/08/26 19:08:03;;;;;;;6.37;4.23;;;21.00;99.90;;;;;;8355377;28;20209;-64
2022/08/26 19:12:04;;;;;;;12.43;5.97;;;20.90;99.90;;;;;;8352101;28;20210;-63
2022/08/26 19:16:05;;;;;;;10.13;6.73;;;20.90;99.90;;;;;;8355705;28;20213;-64
2022/08/26 19:20:07;;;;;;;16.83;8.37;;;21.30;1.00;;;;;;8355270;28;20205;-63
2022/08/26 19:24:14;;;;;;;18.33;8.53;;;21.90;99.90;;;;;;8369250;28;20197;-66
2022/08/26 19:28:16;;;;;;;12.00;8.20;;;22.20;6.60;;;;;;8366891;28;20214;-63
2022/08/26 19:32:23;;;;;;;13.97;8.10;;;22.50;1.00;;;;;;8385702;28;20190;-64
2022/08/26 19:36:24;;;;;;;14.80;7.10;;;22.60;1.00;;;;;;8353872;28;20250;-64
2022/08/26 19:40:26;;;;;;;9.67;6.77;;;22.70;1.00;;;;;;8360461;28;20276;-63
2022/08/26 19:48:48;;;;;;;10.27;5.80;;;22.50;99.90;;;;;;8355181;28;20219;-64
2022/08/26 19:52:48;;;;;;;11.43;6.40;;;22.40;99.90;;;;;;8349515;28;20178;-64
2022/08/26 19:56:50;;;;;;;9.20;5.73;;;22.30;99.90;;;;;;8355455;28;20185;-65
2022/08/26 20:00:51;;;;;;;9.00;5.53;;;22.20;99.90;;;;;;8360405;28;20239;-66
2022/08/26 20:04:52;;;;;;;10.80;6.27;;;22.10;99.90;;;;;;8351476;28;20277;-65
2022/08/26 20:08:52;;;;;;;8.87;6.07;;;22.00;99.90;;;;;;8350224;28;20265;-65
2022/08/26 20:12:53;;;;;;;9.50;5.57;;;21.90;99.90;;;;;;8348309;28;20277;-64
2022/08/26 20:16:56;;;;;;;10.50;5.97;;;21.90;99.90;;;;;;8346492;28;20235;-64
2022/08/26 20:25:17;;;;;;;11.10;5.90;;;21.70;1.00;;;;;;8349788;28;20283;-65
2022/08/26 20:29:18;;;;;;;10.17;6.13;;;21.60;1.00;;;;;;8347215;28;20190;-66
2022/08/26 20:33:19;;;;;;;9.33;5.67;;;21.60;1.00;;;;;;8344863;28;20308;-65
2022/08/26 20:37:21;;;;;;;6.80;5.50;;;21.50;1.00;;;;;;8349367;28;20190;-65
2022/08/26 20:41:24;;;;;;;13.53;5.83;;;21.40;1.00;;;;;;8347589;28;20192;-65
2022/08/26 20:45:25;;;;;;;5.70;5.00;;;21.30;99.90;;;;;;8347291;28;20202;-66
2022/08/26 20:49:26;;;;;;;7.77;5.77;;;21.10;29.90;;;;;;8345379;28;20181;-66
2022/08/26 20:53:28;;;;;;;10.40;6.27;;;21.00;75.00;;;;;;8345265;28;20492;-66
2022/08/26 20:57:29;;;;;;;10.83;6.50;;;20.90;99.90;;;;;;8347098;28;20179;-67
2022/08/26 21:01:35;;;;;;;8.77;5.40;;;20.80;1.00;;;;;;8348185;28;20281;-66
2022/08/26 21:05:36;;;;;;;7.70;5.30;;;20.60;99.90;;;;;;8344719;28;20216;-66
2022/08/26 21:09:37;;;;;;;8.33;5.57;;;20.40;99.90;;;;;;8350440;28;20186;-66
2022/08/26 21:13:38;;;;;;;8.67;5.87;;;20.20;9.30;;;;;;8347913;28;20201;-67
2022/08/26 21:17:42;;;;;;;8.03;5.47;;;20.10;1.00;;;;;;8348071;28;20232;-65
2022/08/26 21:21:43;;;;;;;6.60;5.77;;;20.10;99.90;;;;;;8336189;28;20193;-65